Time;durP1;ratioP1;P1;durP2;ratioP2;P2;SDS_P1;SDS_P2;PMS_P1;PMS_P2;Temp;Humidity;BMP_temperature;BMP_pressure;BME280_temperature;BME280_humidity;BME280_pressure;Samples;Min_cycle;Max_cycle;Signal;HPM_P1;HPM_P2
2024/03/11 00:00:01;;;;;;;;;14.80;12.60;;;;;12.09;100.00;97831.13;5976242;29;96424;-56
2024/03/11 00:03:15;;;;;;;;;15.00;14.00;;;;;12.17;100.00;97852.25;5954159;29;96391;-56
2024/03/11 00:06:18;;;;;;;;;14.60;14.00;;;;;12.12;100.00;97834.13;5974468;29;96387;-56
2024/03/11 00:09:28;;;;;;;;;15.00;13.50;;;;;12.27;100.00;97846.94;5975619;29;96303;-56
2024/03/11 00:12:38;;;;;;;;;17.00;14.50;;;;;12.18;100.00;97842.28;5958866;29;97794;-56
2024/03/11 00:15:44;;;;;;;;;16.00;13.50;;;;;12.23;100.00;97842.31;5959872;29;96848;-56
2024/03/11 00:18:48;;;;;;;;;16.00;13.00;;;;;12.24;100.00;97852.88;5976173;29;96338;-56
2024/03/11 00:21:54;;;;;;;;;18.00;14.00;;;;;11.93;100.00;97826.66;5960085;29;96308;-56
2024/03/11 00:24:58;;;;;;;;;16.00;13.00;;;;;11.95;100.00;97838.03;5977081;29;96375;-56
2024/03/11 00:28:01;;;;;;;;;16.20;14.20;;;;;11.87;100.00;97835.78;5975791;29;96367;-56
2024/03/11 00:31:06;;;;;;;;;16.60;14.00;;;;;11.87;100.00;97830.41;5975855;29;97035;-56
2024/03/11 00:34:10;;;;;;;;;14.00;13.00;;;;;11.79;100.00;97828.94;5976752;29;97265;-56
2024/03/11 00:37:14;;;;;;;;;14.60;13.40;;;;;11.81;100.00;97831.41;5976287;29;96573;-56
2024/03/11 00:40:18;;;;;;;;;16.40;14.40;;;;;11.84;100.00;97815.50;5976529;29;96899;-56
2024/03/11 00:43:21;;;;;;;;;15.00;14.00;;;;;11.61;100.00;97816.59;5976520;29;96207;-56
2024/03/11 00:46:25;;;;;;;;;15.80;14.80;;;;;11.65;100.00;97816.91;5975651;29;96324;-55
2024/03/11 00:49:28;;;;;;;;;16.00;12.40;;;;;11.69;100.00;97812.63;5975432;29;96296;-56
2024/03/11 00:52:31;;;;;;;;;15.00;13.40;;;;;11.71;100.00;97811.31;5959992;29;96429;-56
2024/03/11 00:55:34;;;;;;;;;12.60;12.00;;;;;11.66;100.00;97818.53;5957487;29;96274;-56
2024/03/11 00:58:37;;;;;;;;;16.00;13.00;;;;;11.57;100.00;97802.00;5976139;29;96303;-56
2024/03/11 01:01:42;;;;;;;;;17.00;14.40;;;;;11.60;100.00;97809.56;5976047;29;96396;-56
2024/03/11 01:04:46;;;;;;;;;14.20;14.00;;;;;11.58;100.00;97805.50;5975148;29;96673;-56
2024/03/11 01:07:49;;;;;;;;;15.00;13.00;;;;;11.69;100.00;97799.13;5958473;29;96274;-56
2024/03/11 01:10:52;;;;;;;;;14.20;13.00;;;;;11.52;100.00;97801.94;5975967;29;96413;-55
2024/03/11 01:13:55;;;;;;;;;15.40;14.20;;;;;11.67;100.00;97785.06;5975814;29;96406;-56
2024/03/11 01:17:01;;;;;;;;;15.00;15.00;;;;;11.73;100.00;97784.06;5975568;29;96294;-56
2024/03/11 01:20:06;;;;;;;;;14.00;13.60;;;;;11.76;100.00;97783.56;5975255;29;96344;-56
2024/03/11 01:23:10;;;;;;;;;16.00;14.40;;;;;11.61;100.00;97756.41;5975353;29;96292;-56
2024/03/11 01:26:13;;;;;;;;;15.60;13.00;;;;;11.73;100.00;97777.88;5975059;29;96840;-55
2024/03/11 01:29:16;;;;;;;;;19.20;17.80;;;;;11.71;100.00;97788.91;5974633;29;96576;-56
2024/03/11 01:32:21;;;;;;;;;15.00;14.00;;;;;11.71;100.00;97787.00;5974954;29;96366;-56
2024/03/11 01:35:25;;;;;;;;;15.20;14.20;;;;;11.67;100.00;97774.28;5958359;29;97447;-55
2024/03/11 01:38:28;;;;;;;;;13.00;12.00;;;;;11.76;100.00;97774.66;5974275;29;96363;-56
2024/03/11 01:41:32;;;;;;;;;17.00;15.00;;;;;11.52;100.00;97779.53;5975322;29;96336;-56
2024/03/11 01:44:35;;;;;;;;;15.00;12.00;;;;;11.44;100.00;97737.59;5957813;29;96524;-55
2024/03/11 01:47:41;;;;;;;;;17.00;13.00;;;;;11.65;100.00;97761.03;5975373;29;96996;-55
2024/03/11 01:50:44;;;;;;;;;15.00;13.00;;;;;11.53;100.00;97754.97;5975159;29;97194;-55
2024/03/11 01:53:48;;;;;;;;;14.00;11.00;;;;;11.48;100.00;97751.41;5967737;29;96304;-56
2024/03/11 01:56:51;;;;;;;;;13.00;11.60;;;;;11.47;100.00;97760.59;5951808;29;96884;-56
2024/03/11 01:59:54;;;;;;;;;14.00;13.60;;;;;11.55;100.00;97752.00;5955683;29;96191;-55
2024/03/11 02:02:59;;;;;;;;;11.40;11.20;;;;;11.62;100.00;97758.03;5975074;23;96279;-59
2024/03/11 02:06:02;;;;;;;;;12.00;11.00;;;;;11.68;100.00;97760.50;5987430;29;96816;-52
2024/03/11 02:09:07;;;;;;;;;15.20;13.80;;;;;11.79;100.00;97750.66;6004277;29;96480;-54
2024/03/11 02:12:12;;;;;;;;;11.75;11.75;;;;;11.70;100.00;97738.66;5986886;29;96416;-55
2024/03/11 02:15:17;;;;;;;;;15.80;14.00;;;;;11.77;100.00;97749.28;6003284;29;96566;-54
2024/03/11 02:18:21;;;;;;;;;13.00;13.00;;;;;11.73;100.00;97757.06;6004254;29;96384;-54
2024/03/11 02:21:25;;;;;;;;;16.60;14.00;;;;;11.83;100.00;97746.34;6025963;29;96828;-54
2024/03/11 02:24:30;;;;;;;;;14.20;12.80;;;;;11.87;100.00;97750.19;6027091;29;96275;-54
2024/03/11 02:27:33;;;;;;;;;17.50;16.00;;;;;11.93;100.00;97749.16;6015870;29;96369;-54
2024/03/11 02:30:36;;;;;;;;;14.80;13.40;;;;;11.85;100.00;97738.00;6003704;29;96374;-54
2024/03/11 02:33:39;;;;;;;;;13.20;12.80;;;;;11.91;100.00;97745.91;5986605;29;96679;-55
2024/03/11 02:36:46;;;;;;;;;13.40;11.00;;;;;11.83;100.00;97749.06;6002954;29;96355;-54
2024/03/11 02:39:51;;;;;;;;;19.00;17.00;;;;;11.87;100.00;97743.97;6004065;29;96487;-54
2024/03/11 02:42:54;;;;;;;;;11.50;11.00;;;;;11.85;100.00;97741.53;6003739;29;96589;-54
2024/03/11 02:45:57;;;;;;;;;13.00;12.00;;;;;11.96;100.00;97745.13;6003450;29;96551;-53
2024/03/11 02:49:00;;;;;;;;;16.40;14.00;;;;;11.86;100.00;97737.75;6003036;29;96506;-53
2024/03/11 02:52:04;;;;;;;;;12.67;11.67;;;;;11.85;100.00;97738.00;5971054;29;96499;-54
2024/03/11 02:55:13;;;;;;;;;14.25;13.00;;;;;11.86;100.00;97736.94;6003073;29;96276;-53
2024/03/11 02:58:18;;;;;;;;;14.00;12.00;;;;;11.59;100.00;97734.22;6003360;29;96485;-53
2024/03/11 03:01:21;;;;;;;;;14.00;13.00;;;;;11.56;100.00;97726.66;6003443;29;96306;-54
2024/03/11 03:04:24;;;;;;;;;17.00;16.00;;;;;11.48;100.00;97716.34;6003058;29;96236;-53
2024/03/11 03:07:27;;;;;;;;;13.00;12.00;;;;;11.43;100.00;97716.28;6006872;28;96456;-57
2024/03/11 03:22:17;;;;;;;;;14.60;12.60;;;;;11.44;100.00;97709.78;686106;23;98526;-88
2024/03/11 03:25:21;;;;;;;;;14.00;13.00;;;;;11.37;100.00;97679.53;5984546;29;97238;-89
2024/03/11 03:28:25;;;;;;;;;14.00;11.00;;;;;10.56;100.00;97579.75;5972202;29;96496;-89
2024/03/11 03:31:28;;;;;;;;;15.50;13.50;;;;;11.02;100.00;97616.09;5972431;29;96843;-88
2024/03/11 03:34:31;;;;;;;;;13.00;12.20;;;;;11.01;100.00;97594.75;5989665;29;96481;-89
2024/03/11 03:37:35;;;;;;;;;13.75;12.75;;;;;11.00;100.00;97638.97;5991577;29;96957;-89
2024/03/11 03:40:39;;;;;;;;;14.00;13.00;;;;;11.69;100.00;97710.03;5977375;29;96680;-89
2024/03/11 03:43:43;;;;;;;;;13.40;11.40;;;;;11.92;100.00;97714.31;5994270;29;97741;-90
2024/03/11 03:46:47;;;;;;;;;13.00;12.00;;;;;11.74;100.00;97693.91;5983152;29;97020;-90
2024/03/11 03:49:50;;;;;;;;;12.40;11.40;;;;;11.04;100.00;97551.94;5999710;29;96607;-90
2024/03/11 03:52:54;;;;;;;;;13.00;12.00;;;;;12.15;100.00;97728.25;5984052;29;96554;-89
2024/03/11 03:55:58;;;;;;;;;14.00;11.40;;;;;11.75;100.00;97694.72;5980079;29;99238;-89
2024/03/11 03:59:02;;;;;;;;;15.40;13.60;;;;;12.09;100.00;97734.69;5988835;29;96412;-89
2024/03/11 04:02:05;;;;;;;;;14.00;13.00;;;;;12.12;100.00;97728.75;5990030;29;97015;-88
2024/03/11 04:05:09;;;;;;;;;13.60;12.60;;;;;12.21;100.00;97739.91;5973489;29;96330;-89
2024/03/11 04:08:12;;;;;;;;;13.60;12.00;;;;;12.21;100.00;97741.81;5973965;29;97593;-89
2024/03/11 04:11:18;;;;;;;;;14.40;12.40;;;;;11.15;100.00;97590.56;5974697;29;96390;-90
2024/03/11 04:14:22;;;;;;;;;13.00;11.40;;;;;11.99;100.00;97680.59;5991333;29;96558;-90
2024/03/11 04:17:25;;;;;;;;;14.00;13.00;;;;;12.13;100.00;97681.75;5971481;29;96793;-89
2024/03/11 04:20:29;;;;;;;;;14.80;12.00;;;;;11.73;100.00;97668.78;5971141;29;96973;-89
2024/03/11 04:23:32;;;;;;;;;13.40;12.00;;;;;12.26;100.00;97701.31;5971068;29;99673;-89
2024/03/11 04:26:38;;;;;;;;;12.00;11.20;;;;;10.86;100.00;97468.72;5971935;29;96663;-89
2024/03/11 04:29:41;;;;;;;;;13.00;12.00;;;;;12.14;100.00;97658.25;5968762;29;97497;-86
2024/03/11 04:32:51;;;;;;;;;13.00;12.60;;;;;12.42;100.00;97708.41;5983717;29;96508;-85
2024/03/11 04:35:55;;;;;;;;;16.00;12.00;;;;;12.18;100.00;97697.19;5969306;29;99296;-85
2024/03/11 04:38:58;;;;;;;;;13.40;12.00;;;;;12.37;100.00;97711.09;5969836;29;97570;-85
2024/03/11 04:42:03;;;;;;;;;12.00;11.75;;;;;12.40;100.00;97715.97;5984966;29;98119;-85
2024/03/11 04:45:07;;;;;;;;;12.00;12.00;;;;;12.12;100.00;97699.03;5968243;29;99026;-87
2024/03/11 04:48:10;;;;;;;;;13.00;12.00;;;;;11.87;100.00;97671.06;5983727;29;97250;-86
2024/03/11 04:51:14;;;;;;;;;13.00;13.00;;;;;12.15;100.00;97744.47;5975511;29;96283;-85
2024/03/11 04:54:19;;;;;;;;;12.50;12.00;;;;;11.30;100.00;97561.00;5992310;29;96917;-86
2024/03/11 04:57:23;;;;;;;;;12.60;11.60;;;;;10.64;100.00;97498.47;5983248;29;96575;-86
2024/03/11 05:00:30;;;;;;;;;15.40;14.00;;;;;11.96;100.00;97691.94;5969649;29;96521;-86
2024/03/11 05:03:33;;;;;;;;;14.00;13.00;;;;;12.14;100.00;97704.19;5971963;29;98642;-86
2024/03/11 05:06:36;;;;;;;;;13.80;13.00;;;;;12.45;100.00;97734.94;5975887;29;96569;-85
2024/03/11 05:09:40;;;;;;;;;11.00;10.00;;;;;12.11;100.00;97692.03;5980414;29;96988;-86
2024/03/11 05:12:45;;;;;;;;;14.00;12.00;;;;;10.97;100.00;97521.66;5985727;29;96424;-87
2024/03/11 05:15:48;;;;;;;;;13.00;12.00;;;;;12.43;100.00;97700.03;5977313;29;96546;-84
2024/03/11 05:18:53;;;;;;;;;14.20;13.00;;;;;11.90;100.00;97611.94;5983472;29;96643;-84
2024/03/11 05:21:56;;;;;;;;;14.40;13.60;;;;;11.99;100.00;97615.78;5962314;29;98158;-86
2024/03/11 05:24:59;;;;;;;;;12.00;11.00;;;;;12.39;100.00;97693.53;5965925;29;96662;-87
2024/03/11 05:28:04;;;;;;;;;15.00;14.25;;;;;12.71;100.00;97717.75;5973713;29;96455;-86
2024/03/11 05:31:08;;;;;;;;;9.80;9.80;;;;;12.50;100.00;97689.00;5974496;29;97481;-86
2024/03/11 05:34:11;;;;;;;;;12.00;11.00;;;;;12.51;100.00;97713.06;5960901;29;97551;-85
2024/03/11 05:37:15;;;;;;;;;11.00;11.00;;;;;12.19;100.00;97630.47;5976463;29;96817;-89
2024/03/11 05:40:19;;;;;;;;;12.80;10.80;;;;;12.74;100.00;97711.84;5965771;29;96596;-89
2024/03/11 05:43:23;;;;;;;;;14.00;13.00;;;;;12.39;100.00;97663.00;5978539;29;96791;-89
2024/03/11 05:46:28;;;;;;;;;14.60;13.00;;;;;12.51;100.00;97679.81;5963238;29;96416;-89
2024/03/11 05:49:33;;;;;;;;;13.80;12.20;;;;;12.71;100.00;97725.03;5980148;29;99717;-91
2024/03/11 05:52:38;;;;;;;;;13.40;12.00;;;;;12.75;100.00;97712.66;5987886;29;96823;-90
2024/03/11 05:55:41;;;;;;;;;12.40;11.40;;;;;11.57;100.00;97574.44;5971097;29;96805;-89
2024/03/11 05:58:46;;;;;;;;;15.00;14.00;;;;;12.88;100.00;97728.38;5969556;29;96841;-90
2024/03/11 06:01:50;;;;;;;;;15.60;12.60;;;;;12.23;100.00;97620.75;5975627;29;97184;-89
2024/03/11 06:04:53;;;;;;;;;15.60;15.00;;;;;12.65;100.00;97716.13;5952226;29;96683;-88
2024/03/11 06:07:56;;;;;;;;;18.00;16.00;;;;;12.75;100.00;97726.16;5972887;29;97147;-91
2024/03/11 06:11:00;;;;;;;;;15.20;14.20;;;;;12.97;100.00;97764.66;5982317;29;97030;-90
2024/03/11 06:14:05;;;;;;;;;19.60;16.60;;;;;11.97;100.00;97630.63;5981368;29;96765;-90
2024/03/11 06:17:10;;;;;;;;;14.80;13.60;;;;;13.07;100.00;97796.34;5967521;29;96660;-90
2024/03/11 06:20:14;;;;;;;;;15.00;15.00;;;;;12.90;100.00;97791.94;5967802;29;97995;-90
2024/03/11 06:23:19;;;;;;;;;15.80;13.40;;;;;12.10;100.00;97619.34;5969495;29;96663;-90
2024/03/11 06:26:22;;;;;;;;;17.00;15.00;;;;;13.32;100.00;97810.03;5974605;29;96344;-89
2024/03/11 06:29:27;;;;;;;;;17.00;16.00;;;;;12.43;100.00;97656.81;5967435;29;97454;-88
2024/03/11 06:32:32;;;;;;;;;14.75;13.00;;;;;13.41;100.00;97814.66;5958934;29;96482;-89
2024/03/11 06:35:35;;;;;;;;;16.00;14.00;;;;;12.99;100.00;97757.09;5959531;29;96359;-90
2024/03/11 06:38:38;;;;;;;;;17.00;15.40;;;;;13.30;100.00;97806.75;5944128;29;97093;-90
2024/03/11 06:41:42;;;;;;;;;15.80;15.40;;;;;13.57;100.00;97842.59;5992585;29;96308;-88
2024/03/11 06:44:49;;;;;;;;;14.50;13.75;;;;;12.59;100.00;97666.63;5988660;29;98054;-88
2024/03/11 06:47:52;;;;;;;;;14.40;13.40;;;;;13.48;100.00;97824.44;6001368;29;96366;-88
2024/03/11 06:50:55;;;;;;;;;14.00;12.50;;;;;13.43;100.00;97779.22;5965835;29;96904;-88
2024/03/11 06:54:00;;;;;;;;;12.00;11.60;;;;;13.50;100.00;97787.88;5965871;29;96336;-88
2024/03/11 06:57:05;;;;;;;;;16.50;15.00;;;;;13.62;100.00;97804.69;5965767;29;96574;-88
2024/03/11 07:00:18;;;;;;;;;15.00;14.00;;;;;13.70;100.00;97814.19;5965872;29;97160;-88
2024/03/11 07:03:23;;;;;;;;;14.40;14.00;;;;;13.76;100.00;97837.50;5982008;29;96879;-88
2024/03/11 07:06:26;;;;;;;;;14.00;14.00;;;;;13.31;100.00;97722.59;5965514;29;98085;-88
2024/03/11 07:09:29;;;;;;;;;16.00;14.60;;;;;14.10;100.00;97827.81;5958503;29;96939;-88
2024/03/11 07:12:32;;;;;;;;;14.60;13.00;;;;;14.01;100.00;97812.34;5973366;29;97614;-88
2024/03/11 07:15:37;;;;;;;;;17.00;16.00;;;;;13.99;100.00;97793.63;5958242;29;97311;-88
2024/03/11 07:18:41;;;;;;;;;14.60;13.20;;;;;14.28;100.00;97827.25;5977393;29;98636;-88
2024/03/11 07:21:45;;;;;;;;;14.00;14.00;;;;;13.38;100.00;97697.97;6003971;29;96575;-88
2024/03/11 07:24:50;;;;;;;;;18.20;17.20;;;;;14.27;100.00;97833.75;5980860;29;96348;-89
2024/03/11 07:27:53;;;;;;;;;16.25;14.25;;;;;13.65;100.00;97719.38;5981100;29;99679;-88
2024/03/11 07:30:58;;;;;;;;;20.75;18.75;;;;;12.95;100.00;97635.06;5993493;29;96619;-88
2024/03/11 07:34:01;;;;;;;;;23.33;19.00;;;;;14.29;100.00;97828.91;5950830;29;96449;-88
2024/03/11 07:37:04;;;;;;;;;22.00;20.60;;;;;14.19;100.00;97793.66;5934857;29;96644;-88
2024/03/11 07:40:11;;;;;;;;;24.50;23.00;;;;;13.81;100.00;97724.56;5934490;29;96768;-88
2024/03/11 07:43:15;;;;;;;;;22.75;20.75;;;;;14.63;100.00;97842.72;5949867;29;96368;-88
2024/03/11 07:46:19;;;;;;;;;21.25;19.25;;;;;14.25;100.00;97833.22;5950574;29;96798;-88
2024/03/11 07:49:22;;;;;;;;;20.00;19.00;;;;;13.86;100.00;97748.13;5949314;29;97130;-86
2024/03/11 07:52:26;;;;;;;;;23.80;22.80;;;;;13.87;100.00;97725.38;5963951;29;97569;-88
2024/03/11 07:55:29;;;;;;;;;24.00;22.00;;;;;13.79;100.00;97699.63;5972516;29;98096;-88
2024/03/11 07:58:34;;;;;;;;;20.40;18.40;;;;;14.86;100.00;97873.91;5982330;23;97639;-57
2024/03/11 08:01:40;;;;;;;;;17.00;15.60;;;;;14.89;100.00;97875.25;5972802;29;96344;-56
2024/03/11 08:04:43;;;;;;;;;17.20;16.40;;;;;14.97;100.00;97866.56;5975215;29;97237;-56
2024/03/11 08:07:48;;;;;;;;;18.75;16.75;;;;;14.96;100.00;97873.06;5976876;29;96982;-56
2024/03/11 08:10:51;;;;;;;;;16.20;16.00;;;;;15.00;100.00;97869.53;5976459;29;96639;-57
2024/03/11 08:13:54;;;;;;;;;17.00;15.80;;;;;15.03;100.00;97876.31;5976557;29;96644;-56
2024/03/11 08:16:59;;;;;;;;;15.00;14.40;;;;;15.08;100.00;97873.59;5976505;29;96410;-56
2024/03/11 08:20:08;;;;;;;;;17.00;15.00;;;;;15.29;100.00;97886.03;5964324;29;98082;-56
2024/03/11 08:23:11;;;;;;;;;14.50;13.00;;;;;15.52;100.00;97893.59;5941050;29;96418;-57
2024/03/11 08:26:17;;;;;;;;;18.25;15.25;;;;;15.78;100.00;97882.63;5940442;29;96330;-56
2024/03/11 08:29:20;;;;;;;;;14.20;13.80;;;;;16.01;100.00;97888.19;5934872;29;96372;-57
2024/03/11 08:32:24;;;;;;;;;15.20;13.00;;;;;16.16;100.00;97895.44;5932552;29;96658;-57
2024/03/11 08:35:27;;;;;;;;;14.00;13.00;;;;;16.38;100.00;97890.38;5936215;29;96783;-57
2024/03/11 08:38:31;;;;;;;;;14.00;12.00;;;;;16.37;100.00;97898.84;5941944;29;96576;-57
2024/03/11 08:41:36;;;;;;;;;13.00;12.00;;;;;16.53;100.00;97889.44;5953306;29;96325;-56
2024/03/11 08:44:43;;;;;;;;;16.00;13.00;;;;;16.69;100.00;97895.63;5953521;29;96388;-57
2024/03/11 08:47:48;;;;;;;;;13.60;13.00;;;;;16.79;100.00;97899.06;5953432;29;96500;-56
2024/03/11 08:50:51;;;;;;;;;15.00;14.00;;;;;16.93;100.00;97903.84;5952980;29;96391;-57
2024/03/11 08:53:54;;;;;;;;;19.00;16.60;;;;;17.16;100.00;97903.88;5952923;29;97189;-57
2024/03/11 08:57:02;;;;;;;;;16.00;14.00;;;;;17.41;100.00;97905.53;5953756;29;96390;-53
2024/03/11 09:07:37;;;;;;;;;15.80;13.20;;;;;17.47;100.00;97917.19;6435029;23;98960;-55
2024/03/11 09:10:41;;;;;;;;;16.40;14.40;;;;;17.29;100.00;97921.47;6396674;23;98458;-55
2024/03/11 09:13:44;;;;;;;;;17.00;14.20;;;;;17.17;100.00;97918.31;6091637;23;98551;-58
2024/03/11 09:16:47;;;;;;;;;16.00;13.80;;;;;17.14;100.00;97924.34;6028475;28;96900;-57
2024/03/11 09:19:53;;;;;;;;;17.00;14.60;;;;;17.03;100.00;97928.25;6305108;23;98567;-56
2024/03/11 09:26:52;;;;;;;;;15.00;14.00;;;;;16.52;100.00;97873.44;6591090;23;98131;-85
2024/03/11 09:37:19;;;;;;;;;18.00;16.40;;;;;16.72;100.00;97912.19;6188040;23;98554;-56
2024/03/11 09:40:26;;;;;;;;;15.40;13.00;;;;;16.87;100.00;97912.06;6077196;23;97168;-56
2024/03/11 09:43:35;;;;;;;;;14.60;14.00;;;;;16.94;100.00;97906.28;6303662;23;98653;-55
2024/03/11 09:46:42;;;;;;;;;13.40;13.00;;;;;17.09;100.00;97913.50;6013001;28;96884;-57
2024/03/11 09:50:03;;;;;;;;;16.00;14.00;;;;;17.21;100.00;97916.63;6513448;23;98382;31
2024/03/11 09:53:12;;;;;;;;;18.00;16.00;;;;;17.30;100.00;97913.00;6020982;23;96724;-56
2024/03/11 09:56:17;;;;;;;;;18.50;17.00;;;;;17.37;100.00;97911.84;6004055;28;96347;-57
2024/03/11 10:03:33;;;;;;;;;18.00;16.33;;;;;17.25;100.00;97913.03;7396475;23;98556;31
2024/03/11 10:06:40;;;;;;;;;20.50;18.50;;;;;17.20;100.00;97910.38;6002632;29;96569;-56
2024/03/11 10:09:45;;;;;;;;;18.00;17.00;;;;;17.02;100.00;97913.00;5982794;29;96730;-57
2024/03/11 10:12:53;;;;;;;;;20.00;16.00;;;;;16.91;100.00;97912.28;5982034;29;97287;-57
2024/03/11 10:16:14;;;;;;;;;22.40;18.40;;;;;17.00;100.00;97910.59;5973836;29;96637;-58
2024/03/11 10:19:17;;;;;;;;;16.60;15.60;;;;;17.07;100.00;97921.94;5972049;29;96582;-58
2024/03/11 10:22:28;;;;;;;;;21.80;19.80;;;;;17.09;100.00;97908.06;5972535;29;96493;-58
2024/03/11 10:25:31;;;;;;;;;18.60;17.60;;;;;17.15;100.00;97915.88;5973654;29;96513;-58
2024/03/11 10:28:34;;;;;;;;;19.80;18.20;;;;;17.07;100.00;97907.53;5974434;29;96320;-58
2024/03/11 10:31:37;;;;;;;;;19.00;18.00;;;;;17.14;100.00;97908.81;5975538;29;97073;-57
2024/03/11 10:34:54;;;;;;;;;19.00;17.00;;;;;17.18;100.00;97909.06;5976440;29;97557;-58
2024/03/11 10:38:07;;;;;;;;;19.00;19.00;;;;;17.16;100.00;97908.50;5974541;29;96936;-58
2024/03/11 10:41:21;;;;;;;;;22.50;20.25;;;;;16.93;100.00;97906.56;5974348;29;97013;-57
2024/03/11 10:44:29;;;;;;;;;21.00;19.40;;;;;16.91;100.00;97906.84;5973964;29;96347;-58
2024/03/11 10:47:33;;;;;;;;;18.75;16.50;;;;;16.83;100.00;97888.41;5973741;29;96992;-57
2024/03/11 10:50:36;;;;;;;;;17.60;16.00;;;;;16.83;100.00;97902.84;5973853;29;96359;-58
2024/03/11 10:53:42;;;;;;;;;23.00;19.40;;;;;16.89;100.00;97909.88;5973486;29;96316;-57
2024/03/11 10:56:46;;;;;;;;;18.80;17.00;;;;;16.87;100.00;97909.34;5973779;29;97595;-57
2024/03/11 10:59:53;;;;;;;;;20.00;19.00;;;;;16.94;100.00;97910.91;5973617;29;98217;-58
2024/03/11 11:03:07;;;;;;;;;21.00;18.00;;;;;16.94;100.00;97911.72;5978415;29;96352;-58
2024/03/11 11:06:15;;;;;;;;;18.67;17.67;;;;;16.78;100.00;97913.78;5976397;29;96782;-57
2024/03/11 11:09:20;;;;;;;;;17.25;17.00;;;;;16.57;100.00;97915.00;5973177;29;96775;-58
2024/03/11 11:12:23;;;;;;;;;18.80;16.20;;;;;16.53;100.00;97911.22;5973149;29;96401;-57
2024/03/11 11:15:28;;;;;;;;;19.40;19.00;;;;;16.57;100.00;97909.53;5973321;29;96402;-57
2024/03/11 11:18:33;;;;;;;;;17.00;17.00;;;;;16.63;100.00;97897.56;5974889;28;96316;-58
2024/03/11 11:21:43;;;;;;;;;19.60;17.80;;;;;16.73;100.00;97902.13;5973801;29;96655;-58
2024/03/11 11:24:49;;;;;;;;;19.20;17.00;;;;;16.85;100.00;97903.38;5961955;29;96404;-57
2024/03/11 11:27:52;;;;;;;;;20.75;17.75;;;;;17.02;100.00;97904.84;5973103;29;96414;-57
2024/03/11 11:31:11;;;;;;;;;17.00;17.00;;;;;17.10;100.00;97901.53;5956347;29;99449;-57
2024/03/11 11:34:15;;;;;;;;;18.00;15.50;;;;;17.13;100.00;97904.47;5977557;29;96288;-57
2024/03/11 11:37:33;;;;;;;;;20.40;18.00;;;;;17.05;100.00;97896.13;5972377;29;96452;-57
2024/03/11 11:40:39;;;;;;;;;20.00;18.60;;;;;17.12;100.00;97902.03;5958673;29;96895;-58
2024/03/11 11:43:45;;;;;;;;;21.20;17.00;;;;;17.10;100.00;97905.06;5958333;29;96673;-58
2024/03/11 11:46:48;;;;;;;;;22.40;20.40;;;;;17.11;100.00;97906.66;5959275;29;96689;-58
2024/03/11 11:49:51;;;;;;;;;21.00;19.00;;;;;17.10;100.00;97910.50;5971155;29;96269;-58
2024/03/11 11:52:57;;;;;;;;;20.40;19.00;;;;;17.10;100.00;97907.78;5976055;29;98143;-58
2024/03/11 11:56:09;;;;;;;;;20.60;18.00;;;;;17.14;100.00;97902.56;5976680;29;96450;-58
2024/03/11 11:59:12;;;;;;;;;24.00;22.00;;;;;17.16;100.00;97906.59;5976653;29;96408;-58
2024/03/11 12:02:19;;;;;;;;;22.60;20.60;;;;;17.24;100.00;97916.06;5981292;29;96439;-59
2024/03/11 12:05:24;;;;;;;;;24.00;21.00;;;;;16.96;100.00;97906.81;5980188;29;96562;-57
2024/03/11 12:08:27;;;;;;;;;23.00;21.00;;;;;17.17;100.00;97896.53;5959564;29;97127;-57
2024/03/11 12:11:34;;;;;;;;;27.00;25.00;;;;;17.22;100.00;97902.72;5975212;29;96999;-58
2024/03/11 12:14:37;;;;;;;;;29.75;24.00;;;;;17.27;100.00;97902.69;5976131;29;96653;-58
2024/03/11 12:17:48;;;;;;;;;25.20;22.60;;;;;17.30;100.00;97901.28;5943641;29;96569;-57
2024/03/11 12:20:52;;;;;;;;;27.00;23.60;;;;;17.29;100.00;97896.97;5973016;29;96384;-57
2024/03/11 12:23:56;;;;;;;;;27.00;24.50;;;;;17.26;100.00;97890.16;5967860;29;97246;-58
2024/03/11 12:27:00;;;;;;;;;25.00;23.00;;;;;17.42;100.00;97896.25;5953298;29;97407;-58
2024/03/11 12:30:05;;;;;;;;;28.20;24.20;;;;;17.48;100.00;97894.28;5975680;29;97396;-58
2024/03/11 12:33:10;;;;;;;;;26.00;24.00;;;;;17.51;100.00;97901.88;5980436;29;96407;-57
2024/03/11 12:36:14;;;;;;;;;26.25;24.00;;;;;17.40;100.00;97894.94;5973200;29;96504;-57
2024/03/11 12:39:25;;;;;;;;;27.00;25.33;;;;;17.43;100.00;97889.72;5974161;29;97160;-57
2024/03/11 12:42:31;;;;;;;;;25.00;24.00;;;;;17.31;100.00;97901.00;5975070;29;96339;-57
2024/03/11 12:45:42;;;;;;;;;28.40;25.00;;;;;17.29;100.00;97900.50;5974485;29;96409;-57
2024/03/11 12:48:48;;;;;;;;;27.60;25.00;;;;;17.38;100.00;97891.69;5975246;29;96321;-58
2024/03/11 12:52:01;;;;;;;;;30.80;28.00;;;;;17.13;100.00;97892.75;5975941;29;96562;-58
2024/03/11 12:55:12;;;;;;;;;28.00;24.40;;;;;17.07;100.00;97889.28;5975955;29;96580;-57
2024/03/11 12:58:21;;;;;;;;;27.00;24.00;;;;;17.02;100.00;97880.34;5976055;29;96138;-58
2024/03/11 13:01:24;;;;;;;;;26.50;25.00;;;;;16.81;100.00;97838.91;5976052;29;96680;-58
2024/03/11 13:04:27;;;;;;;;;26.60;25.00;;;;;17.14;100.00;97894.38;5984669;29;96302;-58
2024/03/11 13:07:30;;;;;;;;;30.00;27.75;;;;;17.14;100.00;97887.03;5958722;29;96364;-58
2024/03/11 13:10:33;;;;;;;;;28.00;26.20;;;;;17.15;100.00;97885.13;5974821;29;96409;-58
2024/03/11 13:13:39;;;;;;;;;27.75;26.75;;;;;17.22;100.00;97888.31;5974606;29;96427;-57
2024/03/11 13:16:43;;;;;;;;;33.00;28.00;;;;;17.20;100.00;97880.41;5974441;29;96374;-57
2024/03/11 13:19:48;;;;;;;;;29.20;27.80;;;;;17.30;100.00;97882.22;5974506;29;96453;-57
2024/03/11 13:22:51;;;;;;;;;30.00;28.00;;;;;17.37;100.00;97890.03;5973916;29;96504;-57
2024/03/11 13:25:54;;;;;;;;;31.60;28.20;;;;;17.43;100.00;97884.25;5987091;29;96589;-57
2024/03/11 13:28:59;;;;;;;;;28.20;26.00;;;;;17.38;100.00;97869.88;5979399;29;96602;-57
2024/03/11 13:32:02;;;;;;;;;29.00;27.75;;;;;17.46;100.00;97886.41;5958758;29;96935;-58
2024/03/11 13:35:07;;;;;;;;;26.00;23.00;;;;;17.41;100.00;97882.91;5976967;29;96849;-57
2024/03/11 13:38:12;;;;;;;;;28.40;27.00;;;;;17.25;100.00;97883.09;5970951;29;96332;-53
2024/03/11 13:41:18;;;;;;;;;25.20;24.00;;;;;17.11;100.00;97865.81;5988716;29;97123;-55
2024/03/11 13:44:23;;;;;;;;;29.00;27.00;;;;;17.14;100.00;97875.31;5958340;29;96603;-54
2024/03/11 13:47:26;;;;;;;;;26.50;24.00;;;;;17.05;100.00;97883.31;5985322;29;96410;-54
2024/03/11 13:50:32;;;;;;;;;30.00;28.00;;;;;17.02;100.00;97872.16;5969534;29;96694;-54
2024/03/11 13:53:36;;;;;;;;;27.60;23.80;;;;;17.05;100.00;97875.16;5968639;29;96723;-53
2024/03/11 13:56:39;;;;;;;;;31.00;28.00;;;;;17.08;100.00;97871.03;5964688;29;96387;-54
2024/03/11 13:59:44;;;;;;;;;26.00;23.00;;;;;17.07;100.00;97881.09;5969388;29;96427;-52
2024/03/11 14:02:50;;;;;;;;;24.20;23.00;;;;;17.02;100.00;97872.97;5982927;29;96419;-53
2024/03/11 14:05:54;;;;;;;;;29.20;27.20;;;;;16.98;100.00;97871.94;5986976;29;96900;-53
2024/03/11 14:09:00;;;;;;;;;27.40;25.00;;;;;16.97;100.00;97875.75;5989990;29;96313;-54
2024/03/11 14:12:06;;;;;;;;;26.00;24.00;;;;;16.96;100.00;97871.41;5990584;29;96738;-54
2024/03/11 14:15:11;;;;;;;;;28.80;25.80;;;;;16.91;100.00;97873.38;5985350;29;96353;-53
2024/03/11 14:18:15;;;;;;;;;30.25;26.50;;;;;16.87;100.00;97867.69;5982568;29;96302;-54
2024/03/11 14:21:18;;;;;;;;;27.20;25.20;;;;;16.91;100.00;97868.72;5965574;29;96901;-53
2024/03/11 14:24:23;;;;;;;;;29.50;26.75;;;;;16.90;100.00;97858.97;5981694;29;96464;-52
2024/03/11 14:27:27;;;;;;;;;28.20;26.60;;;;;16.82;100.00;97848.69;5983247;29;96316;-52
2024/03/11 14:30:33;;;;;;;;;29.00;26.00;;;;;16.93;100.00;97860.28;5965203;29;96329;-54
2024/03/11 14:33:42;;;;;;;;;28.40;25.40;;;;;16.91;100.00;97855.13;5983082;29;96306;-53